sensor_id;sensor_type;location;lat;lon;timestamp;P1;durP1;ratioP1;P2;durP2;ratioP2
34064;SDS011;20339;49.754;20.158;2023-07-20T00:00:48;7.00;;;3.90;;
34064;SDS011;20339;49.754;20.158;2023-07-20T00:03:35;5.00;;;3.60;;
34064;SDS011;20339;49.754;20.158;2023-07-20T00:06:07;5.10;;;3.50;;
34064;SDS011;20339;49.754;20.158;2023-07-20T00:08:38;8.30;;;4.10;;
34064;SDS011;20339;49.754;20.158;2023-07-20T00:11:09;5.40;;;3.40;;
34064;SDS011;20339;49.754;20.158;2023-07-20T00:13:41;6.70;;;4.00;;
34064;SDS011;20339;49.754;20.158;2023-07-20T00:16:12;5.80;;;3.60;;
34064;SDS011;20339;49.754;20.158;2023-07-20T00:18:43;6.70;;;4.00;;
34064;SDS011;20339;49.754;20.158;2023-07-20T00:21:14;5.60;;;3.60;;
34064;SDS011;20339;49.754;20.158;2023-07-20T00:23:46;5.70;;;3.80;;
34064;SDS011;20339;49.754;20.158;2023-07-20T00:26:17;5.70;;;3.70;;
34064;SDS011;20339;49.754;20.158;2023-07-20T00:28:48;6.10;;;4.30;;
34064;SDS011;20339;49.754;20.158;2023-07-20T00:31:22;6.10;;;3.50;;
34064;SDS011;20339;49.754;20.158;2023-07-20T00:33:55;6.00;;;4.00;;
34064;SDS011;20339;49.754;20.158;2023-07-20T00:36:26;4.90;;;3.60;;
34064;SDS011;20339;49.754;20.158;2023-07-20T00:38:57;7.20;;;4.00;;
34064;SDS011;20339;49.754;20.158;2023-07-20T00:41:28;5.80;;;4.00;;
34064;SDS011;20339;49.754;20.158;2023-07-20T00:44:00;7.20;;;4.60;;
34064;SDS011;20339;49.754;20.158;2023-07-20T00:46:31;6.20;;;3.80;;
34064;SDS011;20339;49.754;20.158;2023-07-20T00:49:03;6.10;;;3.30;;
34064;SDS011;20339;49.754;20.158;2023-07-20T00:51:34;7.30;;;4.40;;
34064;SDS011;20339;49.754;20.158;2023-07-20T00:54:06;9.20;;;5.10;;
34064;SDS011;20339;49.754;20.158;2023-07-20T00:56:38;7.10;;;4.70;;
34064;SDS011;20339;49.754;20.158;2023-07-20T00:59:10;9.00;;;5.10;;
34064;SDS011;20339;49.754;20.158;2023-07-20T01:01:42;6.90;;;4.70;;
34064;SDS011;20339;49.754;20.158;2023-07-20T01:04:13;5.70;;;3.90;;
34064;SDS011;20339;49.754;20.158;2023-07-20T01:06:45;7.40;;;4.60;;
34064;SDS011;20339;49.754;20.158;2023-07-20T01:09:23;5.80;;;3.80;;
34064;SDS011;20339;49.754;20.158;2023-07-20T01:12:00;6.40;;;4.40;;
34064;SDS011;20339;49.754;20.158;2023-07-20T01:14:36;8.30;;;5.00;;
34064;SDS011;20339;49.754;20.158;2023-07-20T01:17:08;9.30;;;5.30;;
34064;SDS011;20339;49.754;20.158;2023-07-20T01:19:40;6.60;;;4.90;;
34064;SDS011;20339;49.754;20.158;2023-07-20T01:22:14;6.90;;;4.90;;
34064;SDS011;20339;49.754;20.158;2023-07-20T01:25:07;6.70;;;5.00;;
34064;SDS011;20339;49.754;20.158;2023-07-20T01:30:55;9.50;;;5.80;;
34064;SDS011;20339;49.754;20.158;2023-07-20T01:33:28;8.90;;;5.40;;
34064;SDS011;20339;49.754;20.158;2023-07-20T01:36:02;6.90;;;5.00;;
34064;SDS011;20339;49.754;20.158;2023-07-20T01:38:34;5.50;;;4.40;;
34064;SDS011;20339;49.754;20.158;2023-07-20T01:41:06;8.60;;;4.90;;
34064;SDS011;20339;49.754;20.158;2023-07-20T01:43:38;7.30;;;4.80;;
34064;SDS011;20339;49.754;20.158;2023-07-20T01:46:09;7.60;;;5.00;;
34064;SDS011;20339;49.754;20.158;2023-07-20T01:48:40;7.30;;;4.90;;
34064;SDS011;20339;49.754;20.158;2023-07-20T01:51:12;8.40;;;4.80;;
34064;SDS011;20339;49.754;20.158;2023-07-20T01:53:43;6.80;;;5.00;;
34064;SDS011;20339;49.754;20.158;2023-07-20T01:56:14;10.00;;;6.60;;
34064;SDS011;20339;49.754;20.158;2023-07-20T01:58:45;11.10;;;6.60;;
34064;SDS011;20339;49.754;20.158;2023-07-20T02:01:16;8.10;;;6.20;;
34064;SDS011;20339;49.754;20.158;2023-07-20T02:03:47;7.90;;;5.70;;
34064;SDS011;20339;49.754;20.158;2023-07-20T02:06:19;8.40;;;5.20;;
34064;SDS011;20339;49.754;20.158;2023-07-20T02:08:50;8.00;;;4.90;;
34064;SDS011;20339;49.754;20.158;2023-07-20T02:11:22;4.70;;;3.60;;
34064;SDS011;20339;49.754;20.158;2023-07-20T02:13:53;6.40;;;3.80;;
34064;SDS011;20339;49.754;20.158;2023-07-20T02:16:24;5.40;;;3.90;;
34064;SDS011;20339;49.754;20.158;2023-07-20T02:18:55;7.40;;;4.50;;
34064;SDS011;20339;49.754;20.158;2023-07-20T02:21:26;7.70;;;4.80;;
34064;SDS011;20339;49.754;20.158;2023-07-20T02:23:57;5.30;;;4.30;;
34064;SDS011;20339;49.754;20.158;2023-07-20T02:26:29;6.50;;;4.50;;
34064;SDS011;20339;49.754;20.158;2023-07-20T02:29:00;5.80;;;4.60;;
34064;SDS011;20339;49.754;20.158;2023-07-20T02:31:32;6.20;;;5.00;;
34064;SDS011;20339;49.754;20.158;2023-07-20T02:34:05;11.60;;;4.70;;
34064;SDS011;20339;49.754;20.158;2023-07-20T02:36:36;10.90;;;5.80;;
34064;SDS011;20339;49.754;20.158;2023-07-20T02:39:07;13.30;;;6.50;;
34064;SDS011;20339;49.754;20.158;2023-07-20T02:41:39;10.00;;;6.20;;
34064;SDS011;20339;49.754;20.158;2023-07-20T02:44:10;11.00;;;6.00;;
34064;SDS011;20339;49.754;20.158;2023-07-20T02:46:42;8.30;;;5.40;;
34064;SDS011;20339;49.754;20.158;2023-07-20T02:49:14;9.90;;;5.60;;
34064;SDS011;20339;49.754;20.158;2023-07-20T02:51:45;7.50;;;5.60;;
34064;SDS011;20339;49.754;20.158;2023-07-20T02:54:16;8.10;;;5.90;;
34064;SDS011;20339;49.754;20.158;2023-07-20T02:56:47;11.20;;;5.90;;
34064;SDS011;20339;49.754;20.158;2023-07-20T02:59:19;8.10;;;5.10;;
34064;SDS011;20339;49.754;20.158;2023-07-20T03:01:50;8.40;;;6.00;;
34064;SDS011;20339;49.754;20.158;2023-07-20T03:04:22;9.10;;;5.40;;
34064;SDS011;20339;49.754;20.158;2023-07-20T03:06:54;9.50;;;6.10;;
34064;SDS011;20339;49.754;20.158;2023-07-20T03:09:27;9.20;;;5.60;;
34064;SDS011;20339;49.754;20.158;2023-07-20T03:11:58;8.90;;;5.30;;
34064;SDS011;20339;49.754;20.158;2023-07-20T03:14:29;8.90;;;5.60;;
34064;SDS011;20339;49.754;20.158;2023-07-20T03:17:00;8.30;;;5.10;;
34064;SDS011;20339;49.754;20.158;2023-07-20T03:19:36;7.10;;;5.10;;
34064;SDS011;20339;49.754;20.158;2023-07-20T03:22:07;7.20;;;5.10;;
34064;SDS011;20339;49.754;20.158;2023-07-20T03:24:38;7.10;;;4.70;;
34064;SDS011;20339;49.754;20.158;2023-07-20T03:27:10;8.90;;;5.30;;
34064;SDS011;20339;49.754;20.158;2023-07-20T03:29:41;6.70;;;4.80;;
34064;SDS011;20339;49.754;20.158;2023-07-20T03:32:12;7.50;;;4.70;;
34064;SDS011;20339;49.754;20.158;2023-07-20T03:34:43;8.00;;;4.90;;
34064;SDS011;20339;49.754;20.158;2023-07-20T03:37:14;6.30;;;5.10;;
34064;SDS011;20339;49.754;20.158;2023-07-20T03:39:45;8.60;;;5.20;;
34064;SDS011;20339;49.754;20.158;2023-07-20T03:42:17;5.30;;;4.20;;
34064;SDS011;20339;49.754;20.158;2023-07-20T03:44:50;5.60;;;4.20;;
34064;SDS011;20339;49.754;20.158;2023-07-20T03:47:24;6.70;;;4.30;;
34064;SDS011;20339;49.754;20.158;2023-07-20T03:49:55;7.10;;;4.50;;
34064;SDS011;20339;49.754;20.158;2023-07-20T03:52:27;5.10;;;3.70;;
34064;SDS011;20339;49.754;20.158;2023-07-20T03:55:00;5.40;;;3.80;;
34064;SDS011;20339;49.754;20.158;2023-07-20T03:57:31;5.60;;;4.00;;
34064;SDS011;20339;49.754;20.158;2023-07-20T04:00:03;6.20;;;3.90;;
34064;SDS011;20339;49.754;20.158;2023-07-20T04:02:40;5.10;;;3.80;;
34064;SDS011;20339;49.754;20.158;2023-07-20T04:05:12;8.00;;;3.70;;
34064;SDS011;20339;49.754;20.158;2023-07-20T04:07:44;5.70;;;3.40;;
34064;SDS011;20339;49.754;20.158;2023-07-20T04:10:15;6.90;;;3.90;;
34064;SDS011;20339;49.754;20.158;2023-07-20T04:12:47;5.40;;;3.40;;
34064;SDS011;20339;49.754;20.158;2023-07-20T04:15:19;5.60;;;3.50;;
34064;SDS011;20339;49.754;20.158;2023-07-20T04:17:51;4.70;;;3.30;;
34064;SDS011;20339;49.754;20.158;2023-07-20T04:20:23;4.30;;;3.00;;
34064;SDS011;20339;49.754;20.158;2023-07-20T04:22:55;4.20;;;3.10;;
34064;SDS011;20339;49.754;20.158;2023-07-20T04:25:26;7.80;;;3.70;;
34064;SDS011;20339;49.754;20.158;2023-07-20T04:27:58;8.40;;;3.60;;
34064;SDS011;20339;49.754;20.158;2023-07-20T04:30:30;7.40;;;3.70;;
34064;SDS011;20339;49.754;20.158;2023-07-20T04:33:02;5.50;;;3.60;;
34064;SDS011;20339;49.754;20.158;2023-07-20T04:35:46;6.70;;;3.80;;
34064;SDS011;20339;49.754;20.158;2023-07-20T04:38:20;5.20;;;3.60;;
34064;SDS011;20339;49.754;20.158;2023-07-20T04:40:52;4.70;;;3.40;;
34064;SDS011;20339;49.754;20.158;2023-07-20T04:43:23;6.70;;;3.30;;
34064;SDS011;20339;49.754;20.158;2023-07-20T04:45:55;5.30;;;3.20;;
34064;SDS011;20339;49.754;20.158;2023-07-20T04:48:26;5.00;;;3.20;;
34064;SDS011;20339;49.754;20.158;2023-07-20T04:50:57;6.70;;;3.40;;
34064;SDS011;20339;49.754;20.158;2023-07-20T04:53:29;5.70;;;3.40;;
34064;SDS011;20339;49.754;20.158;2023-07-20T04:56:00;5.40;;;3.10;;
34064;SDS011;20339;49.754;20.158;2023-07-20T04:58:32;4.80;;;3.20;;
34064;SDS011;20339;49.754;20.158;2023-07-20T05:01:03;5.60;;;3.20;;
34064;SDS011;20339;49.754;20.158;2023-07-20T05:03:34;4.40;;;3.30;;
34064;SDS011;20339;49.754;20.158;2023-07-20T05:06:05;5.00;;;3.30;;
34064;SDS011;20339;49.754;20.158;2023-07-20T05:08:36;6.10;;;3.30;;
34064;SDS011;20339;49.754;20.158;2023-07-20T05:11:08;4.30;;;3.20;;
34064;SDS011;20339;49.754;20.158;2023-07-20T05:13:40;4.50;;;2.90;;
34064;SDS011;20339;49.754;20.158;2023-07-20T05:16:11;6.90;;;3.60;;
34064;SDS011;20339;49.754;20.158;2023-07-20T05:18:43;3.70;;;2.90;;
34064;SDS011;20339;49.754;20.158;2023-07-20T05:21:17;4.60;;;3.20;;
34064;SDS011;20339;49.754;20.158;2023-07-20T05:23:49;5.80;;;3.70;;
34064;SDS011;20339;49.754;20.158;2023-07-20T05:26:20;4.70;;;3.40;;
34064;SDS011;20339;49.754;20.158;2023-07-20T05:28:51;6.20;;;3.70;;
34064;SDS011;20339;49.754;20.158;2023-07-20T05:31:23;7.90;;;3.60;;
34064;SDS011;20339;49.754;20.158;2023-07-20T05:33:54;6.10;;;3.40;;
34064;SDS011;20339;49.754;20.158;2023-07-20T05:36:25;6.20;;;4.60;;
34064;SDS011;20339;49.754;20.158;2023-07-20T05:38:56;5.40;;;3.80;;
34064;SDS011;20339;49.754;20.158;2023-07-20T05:41:28;6.80;;;4.10;;
34064;SDS011;20339;49.754;20.158;2023-07-20T05:43:59;5.40;;;4.00;;
34064;SDS011;20339;49.754;20.158;2023-07-20T05:46:30;8.00;;;4.30;;
34064;SDS011;20339;49.754;20.158;2023-07-20T05:49:01;5.70;;;4.60;;
34064;SDS011;20339;49.754;20.158;2023-07-20T05:51:33;6.30;;;4.60;;
34064;SDS011;20339;49.754;20.158;2023-07-20T05:54:04;9.60;;;5.00;;
34064;SDS011;20339;49.754;20.158;2023-07-20T05:56:35;5.80;;;4.40;;
34064;SDS011;20339;49.754;20.158;2023-07-20T05:59:07;6.20;;;4.80;;
34064;SDS011;20339;49.754;20.158;2023-07-20T06:01:38;9.00;;;4.70;;
34064;SDS011;20339;49.754;20.158;2023-07-20T06:04:09;6.30;;;4.80;;
34064;SDS011;20339;49.754;20.158;2023-07-20T06:06:40;8.10;;;5.10;;
34064;SDS011;20339;49.754;20.158;2023-07-20T06:09:12;7.90;;;4.90;;
34064;SDS011;20339;49.754;20.158;2023-07-20T06:11:43;7.40;;;5.10;;
34064;SDS011;20339;49.754;20.158;2023-07-20T06:14:14;10.80;;;5.20;;
34064;SDS011;20339;49.754;20.158;2023-07-20T06:16:48;6.90;;;4.80;;
34064;SDS011;20339;49.754;20.158;2023-07-20T06:19:21;6.80;;;4.90;;
34064;SDS011;20339;49.754;20.158;2023-07-20T06:21:53;6.00;;;4.40;;
34064;SDS011;20339;49.754;20.158;2023-07-20T06:24:24;8.30;;;4.40;;
34064;SDS011;20339;49.754;20.158;2023-07-20T06:26:56;8.20;;;4.60;;
34064;SDS011;20339;49.754;20.158;2023-07-20T06:29:27;7.50;;;4.30;;
34064;SDS011;20339;49.754;20.158;2023-07-20T06:31:58;6.50;;;4.00;;
34064;SDS011;20339;49.754;20.158;2023-07-20T06:34:29;5.20;;;3.80;;
34064;SDS011;20339;49.754;20.158;2023-07-20T06:37:05;5.60;;;4.20;;
34064;SDS011;20339;49.754;20.158;2023-07-20T06:39:36;6.30;;;3.80;;
34064;SDS011;20339;49.754;20.158;2023-07-20T06:42:07;6.10;;;3.50;;
34064;SDS011;20339;49.754;20.158;2023-07-20T06:44:39;5.30;;;3.10;;
34064;SDS011;20339;49.754;20.158;2023-07-20T06:47:10;3.80;;;3.20;;
34064;SDS011;20339;49.754;20.158;2023-07-20T06:49:41;5.60;;;3.50;;
34064;SDS011;20339;49.754;20.158;2023-07-20T06:52:13;4.60;;;3.30;;
34064;SDS011;20339;49.754;20.158;2023-07-20T06:54:44;5.90;;;3.20;;
34064;SDS011;20339;49.754;20.158;2023-07-20T06:57:16;4.30;;;3.10;;
34064;SDS011;20339;49.754;20.158;2023-07-20T06:59:47;3.80;;;2.90;;
34064;SDS011;20339;49.754;20.158;2023-07-20T07:02:20;4.50;;;2.70;;
34064;SDS011;20339;49.754;20.158;2023-07-20T07:04:55;5.60;;;3.90;;
34064;SDS011;20339;49.754;20.158;2023-07-20T07:07:26;5.10;;;3.20;;
34064;SDS011;20339;49.754;20.158;2023-07-20T07:09:58;5.60;;;2.70;;
34064;SDS011;20339;49.754;20.158;2023-07-20T07:12:32;6.20;;;3.10;;
34064;SDS011;20339;49.754;20.158;2023-07-20T07:15:04;4.60;;;3.10;;
34064;SDS011;20339;49.754;20.158;2023-07-20T07:17:38;3.00;;;2.40;;
34064;SDS011;20339;49.754;20.158;2023-07-20T07:20:12;6.00;;;3.10;;
34064;SDS011;20339;49.754;20.158;2023-07-20T07:22:43;3.60;;;2.10;;
34064;SDS011;20339;49.754;20.158;2023-07-20T07:25:15;4.30;;;2.10;;
34064;SDS011;20339;49.754;20.158;2023-07-20T07:27:47;2.70;;;2.00;;
34064;SDS011;20339;49.754;20.158;2023-07-20T07:30:22;3.40;;;1.80;;
34064;SDS011;20339;49.754;20.158;2023-07-20T07:32:57;2.80;;;2.10;;
34064;SDS011;20339;49.754;20.158;2023-07-20T07:35:28;2.40;;;1.80;;
34064;SDS011;20339;49.754;20.158;2023-07-20T07:38:04;2.80;;;2.10;;
34064;SDS011;20339;49.754;20.158;2023-07-20T07:40:35;2.30;;;2.00;;
34064;SDS011;20339;49.754;20.158;2023-07-20T07:43:07;5.50;;;2.40;;
34064;SDS011;20339;49.754;20.158;2023-07-20T07:45:40;3.90;;;2.30;;
34064;SDS011;20339;49.754;20.158;2023-07-20T07:48:11;3.10;;;2.20;;
34064;SDS011;20339;49.754;20.158;2023-07-20T07:50:42;4.50;;;2.30;;
34064;SDS011;20339;49.754;20.158;2023-07-20T07:53:14;3.90;;;2.40;;
34064;SDS011;20339;49.754;20.158;2023-07-20T07:55:49;4.30;;;2.50;;
34064;SDS011;20339;49.754;20.158;2023-07-20T07:58:20;4.20;;;2.30;;
34064;SDS011;20339;49.754;20.158;2023-07-20T08:00:52;2.90;;;2.30;;
34064;SDS011;20339;49.754;20.158;2023-07-20T08:03:23;3.30;;;2.10;;
34064;SDS011;20339;49.754;20.158;2023-07-20T08:05:55;4.30;;;2.90;;
34064;SDS011;20339;49.754;20.158;2023-07-20T08:08:28;4.00;;;2.80;;
34064;SDS011;20339;49.754;20.158;2023-07-20T08:10:59;4.50;;;2.80;;
34064;SDS011;20339;49.754;20.158;2023-07-20T08:13:31;5.70;;;3.20;;
34064;SDS011;20339;49.754;20.158;2023-07-20T08:16:02;4.40;;;2.60;;
34064;SDS011;20339;49.754;20.158;2023-07-20T08:18:35;4.20;;;2.60;;
34064;SDS011;20339;49.754;20.158;2023-07-20T08:21:06;6.80;;;2.60;;
34064;SDS011;20339;49.754;20.158;2023-07-20T08:23:37;5.80;;;2.60;;
34064;SDS011;20339;49.754;20.158;2023-07-20T08:26:08;4.70;;;2.60;;
34064;SDS011;20339;49.754;20.158;2023-07-20T08:28:40;4.20;;;2.50;;
34064;SDS011;20339;49.754;20.158;2023-07-20T08:31:11;5.10;;;2.80;;
34064;SDS011;20339;49.754;20.158;2023-07-20T08:33:43;6.30;;;2.80;;
34064;SDS011;20339;49.754;20.158;2023-07-20T08:36:17;4.50;;;2.70;;
34064;SDS011;20339;49.754;20.158;2023-07-20T08:38:49;4.00;;;2.60;;
34064;SDS011;20339;49.754;20.158;2023-07-20T08:41:20;3.20;;;2.50;;
34064;SDS011;20339;49.754;20.158;2023-07-20T08:43:52;3.50;;;2.50;;
34064;SDS011;20339;49.754;20.158;2023-07-20T08:46:26;3.90;;;2.20;;
34064;SDS011;20339;49.754;20.158;2023-07-20T08:48:58;3.10;;;2.30;;
34064;SDS011;20339;49.754;20.158;2023-07-20T08:51:30;3.70;;;2.60;;
34064;SDS011;20339;49.754;20.158;2023-07-20T08:54:04;3.40;;;2.60;;
34064;SDS011;20339;49.754;20.158;2023-07-20T08:56:35;3.90;;;2.20;;
34064;SDS011;20339;49.754;20.158;2023-07-20T08:59:08;4.00;;;2.40;;
34064;SDS011;20339;49.754;20.158;2023-07-20T09:01:42;3.40;;;2.20;;
34064;SDS011;20339;49.754;20.158;2023-07-20T09:04:15;3.40;;;2.20;;
34064;SDS011;20339;49.754;20.158;2023-07-20T09:06:47;3.90;;;2.70;;
34064;SDS011;20339;49.754;20.158;2023-07-20T09:09:20;3.50;;;2.20;;
34064;SDS011;20339;49.754;20.158;2023-07-20T09:11:51;3.50;;;2.20;;
34064;SDS011;20339;49.754;20.158;2023-07-20T09:14:22;2.90;;;2.30;;
34064;SDS011;20339;49.754;20.158;2023-07-20T09:16:54;4.00;;;2.10;;
34064;SDS011;20339;49.754;20.158;2023-07-20T09:19:25;4.70;;;2.50;;
34064;SDS011;20339;49.754;20.158;2023-07-20T09:21:57;5.90;;;2.90;;
34064;SDS011;20339;49.754;20.158;2023-07-20T09:24:29;5.10;;;2.50;;
34064;SDS011;20339;49.754;20.158;2023-07-20T09:27:01;4.10;;;2.70;;
34064;SDS011;20339;49.754;20.158;2023-07-20T09:29:35;8.80;;;3.30;;
34064;SDS011;20339;49.754;20.158;2023-07-20T09:32:20;4.60;;;3.00;;
34064;SDS011;20339;49.754;20.158;2023-07-20T09:34:51;5.50;;;2.60;;
34064;SDS011;20339;49.754;20.158;2023-07-20T09:37:24;4.70;;;2.80;;
34064;SDS011;20339;49.754;20.158;2023-07-20T09:39:55;2.70;;;2.30;;
34064;SDS011;20339;49.754;20.158;2023-07-20T09:42:27;3.70;;;2.40;;
34064;SDS011;20339;49.754;20.158;2023-07-20T09:44:59;5.30;;;2.80;;
34064;SDS011;20339;49.754;20.158;2023-07-20T09:47:31;5.10;;;3.00;;
34064;SDS011;20339;49.754;20.158;2023-07-20T09:50:05;4.00;;;2.70;;
34064;SDS011;20339;49.754;20.158;2023-07-20T09:52:39;5.30;;;2.90;;
34064;SDS011;20339;49.754;20.158;2023-07-20T09:55:13;3.90;;;3.00;;
34064;SDS011;20339;49.754;20.158;2023-07-20T09:57:44;3.20;;;2.60;;
34064;SDS011;20339;49.754;20.158;2023-07-20T10:00:18;3.70;;;2.40;;
34064;SDS011;20339;49.754;20.158;2023-07-20T10:02:49;4.70;;;2.60;;
34064;SDS011;20339;49.754;20.158;2023-07-20T10:05:24;3.70;;;2.40;;
34064;SDS011;20339;49.754;20.158;2023-07-20T10:08:03;3.20;;;2.20;;
34064;SDS011;20339;49.754;20.158;2023-07-20T10:10:37;3.80;;;2.80;;
34064;SDS011;20339;49.754;20.158;2023-07-20T10:13:12;4.50;;;2.80;;
34064;SDS011;20339;49.754;20.158;2023-07-20T10:15:49;4.40;;;2.70;;
34064;SDS011;20339;49.754;20.158;2023-07-20T10:18:25;3.80;;;2.30;;
34064;SDS011;20339;49.754;20.158;2023-07-20T10:21:01;2.30;;;2.00;;
34064;SDS011;20339;49.754;20.158;2023-07-20T10:23:36;3.90;;;2.50;;
34064;SDS011;20339;49.754;20.158;2023-07-20T10:26:13;3.00;;;2.50;;
34064;SDS011;20339;49.754;20.158;2023-07-20T10:28:45;4.90;;;2.50;;
34064;SDS011;20339;49.754;20.158;2023-07-20T10:31:17;3.10;;;2.00;;
34064;SDS011;20339;49.754;20.158;2023-07-20T10:33:49;3.40;;;2.20;;
34064;SDS011;20339;49.754;20.158;2023-07-20T10:36:25;6.20;;;2.40;;
34064;SDS011;20339;49.754;20.158;2023-07-20T10:38:57;3.60;;;2.30;;
34064;SDS011;20339;49.754;20.158;2023-07-20T10:41:29;3.30;;;2.30;;
34064;SDS011;20339;49.754;20.158;2023-07-20T10:44:03;3.10;;;2.00;;
34064;SDS011;20339;49.754;20.158;2023-07-20T10:46:41;3.70;;;2.30;;
34064;SDS011;20339;49.754;20.158;2023-07-20T10:49:14;2.70;;;1.90;;
34064;SDS011;20339;49.754;20.158;2023-07-20T10:51:50;4.00;;;2.50;;
34064;SDS011;20339;49.754;20.158;2023-07-20T10:54:35;2.50;;;1.90;;
34064;SDS011;20339;49.754;20.158;2023-07-20T10:57:24;2.80;;;2.00;;
34064;SDS011;20339;49.754;20.158;2023-07-20T11:00:12;4.70;;;2.10;;
34064;SDS011;20339;49.754;20.158;2023-07-20T11:02:52;3.00;;;2.30;;
34064;SDS011;20339;49.754;20.158;2023-07-20T11:05:38;3.90;;;1.70;;
34064;SDS011;20339;49.754;20.158;2023-07-20T11:08:11;4.00;;;1.80;;
34064;SDS011;20339;49.754;20.158;2023-07-20T11:13:59;2.00;;;1.80;;
34064;SDS011;20339;49.754;20.158;2023-07-20T11:16:34;2.80;;;2.00;;
34064;SDS011;20339;49.754;20.158;2023-07-20T11:19:13;3.50;;;2.10;;
34064;SDS011;20339;49.754;20.158;2023-07-20T11:21:46;1.90;;;1.60;;
34064;SDS011;20339;49.754;20.158;2023-07-20T11:24:19;2.10;;;1.60;;
34064;SDS011;20339;49.754;20.158;2023-07-20T11:26:52;2.50;;;1.40;;
34064;SDS011;20339;49.754;20.158;2023-07-20T11:29:26;2.60;;;1.40;;
34064;SDS011;20339;49.754;20.158;2023-07-20T11:31:58;2.50;;;1.70;;
34064;SDS011;20339;49.754;20.158;2023-07-20T11:34:31;2.00;;;1.50;;
34064;SDS011;20339;49.754;20.158;2023-07-20T11:37:05;1.70;;;1.30;;
34064;SDS011;20339;49.754;20.158;2023-07-20T11:39:36;3.70;;;1.90;;
34064;SDS011;20339;49.754;20.158;2023-07-20T11:42:08;2.40;;;1.70;;
34064;SDS011;20339;49.754;20.158;2023-07-20T11:44:41;2.20;;;1.60;;
34064;SDS011;20339;49.754;20.158;2023-07-20T11:47:12;2.20;;;1.90;;
34064;SDS011;20339;49.754;20.158;2023-07-20T11:49:43;1.60;;;1.50;;
34064;SDS011;20339;49.754;20.158;2023-07-20T11:52:22;3.50;;;1.80;;
34064;SDS011;20339;49.754;20.158;2023-07-20T11:54:56;2.30;;;1.60;;
34064;SDS011;20339;49.754;20.158;2023-07-20T11:57:29;2.20;;;1.50;;
34064;SDS011;20339;49.754;20.158;2023-07-20T12:00:02;3.20;;;1.80;;
34064;SDS011;20339;49.754;20.158;2023-07-20T12:02:39;4.30;;;2.00;;
34064;SDS011;20339;49.754;20.158;2023-07-20T12:05:11;2.70;;;1.70;;
34064;SDS011;20339;49.754;20.158;2023-07-20T12:07:42;2.20;;;1.70;;
34064;SDS011;20339;49.754;20.158;2023-07-20T12:10:23;2.30;;;1.60;;
34064;SDS011;20339;49.754;20.158;2023-07-20T12:13:00;2.60;;;1.80;;
34064;SDS011;20339;49.754;20.158;2023-07-20T12:15:33;2.30;;;1.90;;
34064;SDS011;20339;49.754;20.158;2023-07-20T12:18:05;3.10;;;1.70;;
34064;SDS011;20339;49.754;20.158;2023-07-20T12:20:37;2.70;;;1.60;;
34064;SDS011;20339;49.754;20.158;2023-07-20T12:23:10;4.60;;;1.50;;
34064;SDS011;20339;49.754;20.158;2023-07-20T12:25:44;2.30;;;1.80;;
34064;SDS011;20339;49.754;20.158;2023-07-20T12:28:16;2.10;;;1.80;;
34064;SDS011;20339;49.754;20.158;2023-07-20T12:30:49;3.80;;;1.80;;
34064;SDS011;20339;49.754;20.158;2023-07-20T12:33:25;4.00;;;2.30;;
34064;SDS011;20339;49.754;20.158;2023-07-20T12:35:56;4.00;;;1.90;;
34064;SDS011;20339;49.754;20.158;2023-07-20T12:38:32;3.50;;;1.70;;
34064;SDS011;20339;49.754;20.158;2023-07-20T12:41:04;3.30;;;2.00;;
34064;SDS011;20339;49.754;20.158;2023-07-20T12:43:35;2.10;;;1.90;;
34064;SDS011;20339;49.754;20.158;2023-07-20T12:46:08;2.70;;;1.90;;
34064;SDS011;20339;49.754;20.158;2023-07-20T12:48:41;2.60;;;1.80;;
34064;SDS011;20339;49.754;20.158;2023-07-20T12:51:13;2.10;;;1.90;;
34064;SDS011;20339;49.754;20.158;2023-07-20T12:53:45;2.70;;;2.20;;
34064;SDS011;20339;49.754;20.158;2023-07-20T12:56:20;3.50;;;2.20;;
34064;SDS011;20339;49.754;20.158;2023-07-20T12:58:52;3.20;;;1.70;;
34064;SDS011;20339;49.754;20.158;2023-07-20T13:01:26;3.00;;;2.00;;
34064;SDS011;20339;49.754;20.158;2023-07-20T13:03:58;3.60;;;2.40;;
34064;SDS011;20339;49.754;20.158;2023-07-20T13:06:31;3.50;;;2.20;;
34064;SDS011;20339;49.754;20.158;2023-07-20T13:09:02;3.00;;;2.10;;
34064;SDS011;20339;49.754;20.158;2023-07-20T13:11:34;2.60;;;1.80;;
34064;SDS011;20339;49.754;20.158;2023-07-20T13:14:05;2.40;;;1.70;;
34064;SDS011;20339;49.754;20.158;2023-07-20T13:16:37;2.90;;;2.00;;
34064;SDS011;20339;49.754;20.158;2023-07-20T13:19:08;4.60;;;2.50;;
34064;SDS011;20339;49.754;20.158;2023-07-20T13:21:40;2.10;;;1.90;;
34064;SDS011;20339;49.754;20.158;2023-07-20T13:24:11;4.20;;;2.40;;
34064;SDS011;20339;49.754;20.158;2023-07-20T13:26:43;2.50;;;2.20;;
34064;SDS011;20339;49.754;20.158;2023-07-20T13:29:14;3.30;;;2.10;;
34064;SDS011;20339;49.754;20.158;2023-07-20T13:31:45;2.80;;;2.30;;
34064;SDS011;20339;49.754;20.158;2023-07-20T13:34:17;3.60;;;2.10;;
34064;SDS011;20339;49.754;20.158;2023-07-20T13:36:49;2.20;;;2.00;;
34064;SDS011;20339;49.754;20.158;2023-07-20T13:39:20;3.80;;;2.40;;
34064;SDS011;20339;49.754;20.158;2023-07-20T13:41:55;3.80;;;2.30;;
34064;SDS011;20339;49.754;20.158;2023-07-20T13:44:30;2.70;;;2.00;;
34064;SDS011;20339;49.754;20.158;2023-07-20T13:47:02;3.20;;;2.20;;
34064;SDS011;20339;49.754;20.158;2023-07-20T13:49:34;4.50;;;2.10;;
34064;SDS011;20339;49.754;20.158;2023-07-20T13:52:07;3.20;;;1.80;;
34064;SDS011;20339;49.754;20.158;2023-07-20T13:54:38;4.20;;;2.60;;
34064;SDS011;20339;49.754;20.158;2023-07-20T13:57:09;3.40;;;2.20;;
34064;SDS011;20339;49.754;20.158;2023-07-20T13:59:41;3.30;;;2.10;;
34064;SDS011;20339;49.754;20.158;2023-07-20T14:02:13;2.60;;;2.00;;
34064;SDS011;20339;49.754;20.158;2023-07-20T14:04:45;2.90;;;2.00;;
34064;SDS011;20339;49.754;20.158;2023-07-20T14:07:16;5.70;;;3.50;;
34064;SDS011;20339;49.754;20.158;2023-07-20T14:09:48;5.60;;;2.70;;
34064;SDS011;20339;49.754;20.158;2023-07-20T14:12:19;4.10;;;2.60;;
34064;SDS011;20339;49.754;20.158;2023-07-20T14:14:52;2.70;;;2.20;;
34064;SDS011;20339;49.754;20.158;2023-07-20T14:17:24;3.00;;;2.20;;
34064;SDS011;20339;49.754;20.158;2023-07-20T14:19:55;4.70;;;2.40;;
34064;SDS011;20339;49.754;20.158;2023-07-20T14:22:27;4.10;;;2.40;;
34064;SDS011;20339;49.754;20.158;2023-07-20T14:24:59;2.60;;;2.00;;
34064;SDS011;20339;49.754;20.158;2023-07-20T14:27:32;5.80;;;2.30;;
34064;SDS011;20339;49.754;20.158;2023-07-20T14:30:05;4.20;;;2.20;;
34064;SDS011;20339;49.754;20.158;2023-07-20T14:32:38;2.70;;;2.00;;
34064;SDS011;20339;49.754;20.158;2023-07-20T14:35:10;4.90;;;2.00;;
34064;SDS011;20339;49.754;20.158;2023-07-20T14:37:42;3.50;;;2.40;;
34064;SDS011;20339;49.754;20.158;2023-07-20T14:40:15;2.30;;;1.90;;
34064;SDS011;20339;49.754;20.158;2023-07-20T14:42:47;3.00;;;1.90;;
34064;SDS011;20339;49.754;20.158;2023-07-20T14:45:20;3.60;;;2.30;;
34064;SDS011;20339;49.754;20.158;2023-07-20T14:47:51;3.40;;;2.00;;
34064;SDS011;20339;49.754;20.158;2023-07-20T14:50:23;3.80;;;2.30;;
34064;SDS011;20339;49.754;20.158;2023-07-20T14:52:54;7.90;;;3.10;;
34064;SDS011;20339;49.754;20.158;2023-07-20T14:55:26;3.50;;;2.20;;
34064;SDS011;20339;49.754;20.158;2023-07-20T14:57:58;4.00;;;2.20;;
34064;SDS011;20339;49.754;20.158;2023-07-20T15:00:34;2.20;;;1.90;;
34064;SDS011;20339;49.754;20.158;2023-07-20T15:03:06;4.30;;;2.20;;
34064;SDS011;20339;49.754;20.158;2023-07-20T15:05:42;2.20;;;1.80;;
34064;SDS011;20339;49.754;20.158;2023-07-20T15:08:18;6.20;;;2.50;;
34064;SDS011;20339;49.754;20.158;2023-07-20T15:10:51;4.10;;;2.40;;